Time;durP1;ratioP1;P1;durP2;ratioP2;P2;SDS_P1;SDS_P2;PMS_P1;PMS_P2;Temp;Humidity;BMP_temperature;BMP_pressure;BME280_temperature;BME280_humidity;BME280_pressure;Samples;Min_cycle;Max_cycle;Signal;HPM_P1;HPM_P2
2022/07/20 00:00:32;;;;;;;6.22;2.90;;;;;;;22.28;60.77;101206.91;5118437;28;20023;-86
2022/07/20 00:03:10;;;;;;;6.10;2.55;;;;;;;22.30;60.60;101207.56;5118241;28;20516;-85
2022/07/20 00:05:36;;;;;;;4.90;2.55;;;;;;;22.33;60.47;101212.69;5117738;28;20053;-86
2022/07/20 00:08:02;;;;;;;7.00;2.60;;;;;;;22.35;60.41;101187.84;5118359;28;20030;-86
2022/07/20 00:13:12;;;;;;;5.45;3.15;;;;;;;22.43;60.39;101207.78;5118001;28;20093;-86
2022/07/20 00:15:38;;;;;;;5.57;2.60;;;;;;;22.34;60.46;101203.44;5117734;28;20067;-85
2022/07/20 00:18:04;;;;;;;9.35;3.50;;;;;;;22.23;60.46;101190.19;5117434;28;20038;-86
2022/07/20 00:20:29;;;;;;;12.13;3.22;;;;;;;22.16;60.69;101186.50;5117261;28;20016;-86
2022/07/20 00:22:56;;;;;;;18.75;3.83;;;;;;;22.22;60.68;101193.97;5117583;28;20030;-86
2022/07/20 00:25:22;;;;;;;5.60;3.53;;;;;;;22.24;60.58;101198.22;5117556;28;20492;-86
2022/07/20 00:27:48;;;;;;;7.43;3.72;;;;;;;22.20;60.46;101194.13;5117632;28;20377;-86
2022/07/20 00:30:14;;;;;;;8.50;3.42;;;;;;;22.12;60.36;101175.06;5117443;28;20024;-87
2022/07/20 00:32:40;;;;;;;7.18;3.67;;;;;;;22.10;60.81;101188.09;5117266;28;20537;-86
2022/07/20 00:35:08;;;;;;;8.27;3.72;;;;;;;22.03;61.00;101178.06;5116746;28;20016;-86
2022/07/20 00:37:34;;;;;;;10.57;4.22;;;;;;;22.01;60.96;101175.50;5099047;28;20490;-85
2022/07/20 00:39:59;;;;;;;10.38;4.25;;;;;;;21.96;60.89;101177.06;5117474;28;20019;-86
2022/07/20 00:42:25;;;;;;;11.07;3.78;;;;;;;21.94;61.10;101185.50;5117495;28;20023;-86
2022/07/20 00:44:51;;;;;;;9.43;4.28;;;;;;;21.88;61.31;101180.75;5117440;28;20027;-86
2022/07/20 00:47:17;;;;;;;10.85;4.40;;;;;;;21.84;61.31;101178.53;5117241;28;20034;-85
2022/07/20 00:49:42;;;;;;;12.90;5.63;;;;;;;21.77;61.30;101166.63;5116391;28;20102;-86
2022/07/20 00:52:08;;;;;;;20.40;5.03;;;;;;;21.71;61.56;101170.97;5116977;28;20550;-86
2022/07/20 00:54:34;;;;;;;6.90;4.43;;;;;;;21.67;61.68;101175.09;5117129;28;20062;-86
2022/07/20 00:57:00;;;;;;;15.27;4.80;;;;;;;21.70;61.68;101167.38;5116701;28;20047;-85
2022/07/20 00:59:26;;;;;;;14.73;5.22;;;;;;;21.73;61.61;101181.72;5116626;28;20076;-86
2022/07/20 01:01:52;;;;;;;12.07;4.50;;;;;;;21.76;61.49;101173.13;5116370;28;20023;-86
2022/07/20 01:04:17;;;;;;;11.68;4.93;;;;;;;21.78;61.60;101171.03;5116705;28;20449;-86
2022/07/20 01:06:43;;;;;;;11.40;4.50;;;;;;;21.75;61.42;101163.19;5116745;28;20016;-86
2022/07/20 01:09:08;;;;;;;14.82;5.40;;;;;;;21.77;61.36;101166.63;5116942;28;20034;-86
2022/07/20 01:11:35;;;;;;;11.77;5.85;;;;;;;21.77;61.16;101164.75;5117003;28;20023;-86
2022/07/20 01:14:05;;;;;;;17.08;6.53;;;;;;;21.78;61.28;101165.56;5116753;28;20741;-86
2022/07/20 01:16:31;;;;;;;12.27;5.60;;;;;;;21.75;61.46;101169.53;5117192;28;20040;-86
2022/07/20 01:18:56;;;;;;;15.38;6.00;;;;;;;21.71;61.40;101158.09;5116727;28;20466;-86
2022/07/20 01:21:22;;;;;;;13.77;6.07;;;;;;;21.68;61.57;101163.09;5117096;28;20034;-86
2022/07/20 01:23:47;;;;;;;20.08;6.97;;;;;;;21.69;61.62;101160.19;5098714;28;20024;-85
2022/07/20 01:26:17;;;;;;;17.55;8.10;;;;;;;21.65;61.52;101158.81;5116149;28;20396;-85
2022/07/20 01:28:43;;;;;;;15.45;5.93;;;;;;;21.75;61.41;101163.19;5116235;28;20061;-85
2022/07/20 01:31:09;;;;;;;11.60;6.97;;;;;;;21.73;61.32;101168.03;5116003;28;20123;-85
2022/07/20 01:33:35;;;;;;;10.05;5.90;;;;;;;21.63;61.35;101151.84;5116291;28;20431;-86
2022/07/20 01:36:00;;;;;;;16.90;5.57;;;;;;;21.59;61.54;101147.75;5116917;28;20020;-86
2022/07/20 01:38:26;;;;;;;13.02;6.95;;;;;;;21.55;61.63;101152.78;5115842;28;20019;-87
2022/07/20 01:40:51;;;;;;;12.38;5.13;;;;;;;21.55;61.57;101151.91;5115752;28;20026;-85
2022/07/20 01:43:17;;;;;;;18.50;5.50;;;;;;;21.64;61.39;101159.88;5116141;28;20526;-85
2022/07/20 01:45:42;;;;;;;10.90;5.55;;;;;;;21.69;61.35;101162.91;5097624;28;20028;-85
2022/07/20 01:48:08;;;;;;;22.20;6.43;;;;;;;21.68;61.26;101153.00;5116272;28;20401;-85
2022/07/20 01:50:33;;;;;;;13.43;6.43;;;;;;;21.58;61.38;101151.56;5116041;28;20034;-86
2022/07/20 01:52:59;;;;;;;17.23;6.63;;;;;;;21.61;61.56;101152.03;5115892;28;20019;-86
2022/07/20 01:55:24;;;;;;;10.07;6.13;;;;;;;21.55;61.64;101152.78;5115693;28;20455;-85
2022/07/20 01:57:50;;;;;;;10.43;5.90;;;;;;;21.54;61.82;101159.28;5115769;28;20019;-86
2022/07/20 02:00:15;;;;;;;12.70;5.75;;;;;;;21.48;61.89;101156.41;5115642;28;20069;-85
2022/07/20 02:02:41;;;;;;;10.45;5.90;;;;;;;21.44;62.02;101161.38;5115504;28;20053;-85
2022/07/20 02:05:09;;;;;;;8.10;6.05;;;;;;;21.45;62.20;101163.09;5116817;28;20030;-85
2022/07/20 02:07:35;;;;;;;11.63;6.18;;;;;;;21.40;62.07;101160.06;5115775;28;20020;-85
2022/07/20 02:10:01;;;;;;;12.15;7.35;;;;;;;21.36;62.00;101164.19;5115546;28;20051;-85
2022/07/20 02:12:26;;;;;;;16.15;5.18;;;;;;;21.33;62.38;101164.56;5115165;28;20022;-85
2022/07/20 02:14:52;;;;;;;13.77;5.03;;;;;;;21.34;62.54;101160.81;5114797;28;20039;-85
2022/07/20 02:17:17;;;;;;;11.68;5.07;;;;;;;21.28;62.36;101158.78;5115453;28;20034;-85
2022/07/20 02:19:43;;;;;;;11.10;5.13;;;;;;;21.28;62.54;101172.47;5096001;28;20038;-85
2022/07/20 02:22:08;;;;;;;11.20;5.35;;;;;;;21.28;62.31;101161.53;5115152;28;20020;-86
2022/07/20 02:24:34;;;;;;;15.90;5.82;;;;;;;21.28;62.19;101167.00;5115459;28;20034;-86
2022/07/20 02:26:59;;;;;;;11.63;5.57;;;;;;;21.18;62.51;101163.63;5097063;28;20027;-85
2022/07/20 02:29:25;;;;;;;12.15;5.28;;;;;;;21.19;62.89;101178.19;5115272;28;20093;-86
2022/07/20 02:31:50;;;;;;;8.82;5.65;;;;;;;21.27;62.62;101175.38;5114976;28;20023;-85
2022/07/20 02:34:16;;;;;;;12.70;5.22;;;;;;;21.31;62.35;101169.38;5114901;28;20045;-85
2022/07/20 02:36:41;;;;;;;18.98;5.72;;;;;;;21.24;62.37;101176.59;5114793;28;20028;-85
2022/07/20 02:39:07;;;;;;;17.45;5.57;;;;;;;21.06;63.18;101182.31;5114770;28;20046;-86
2022/07/20 02:41:34;;;;;;;12.05;4.97;;;;;;;21.05;62.94;101166.06;5115015;28;20407;-85
2022/07/20 02:44:00;;;;;;;20.40;5.45;;;;;;;20.98;63.20;101159.59;5115321;28;20027;-85
2022/07/20 02:46:25;;;;;;;14.93;6.68;;;;;;;21.01;63.38;101173.78;5114542;28;20497;-85
2022/07/20 02:48:51;;;;;;;12.02;7.20;;;;;;;21.04;63.20;101184.34;5114892;28;20089;-85
2022/07/20 02:51:16;;;;;;;22.52;9.73;;;;;;;20.94;63.60;101175.53;5114830;28;20023;-85
2022/07/20 02:53:42;;;;;;;21.42;12.75;;;;;;;20.99;63.36;101181.31;5114717;28;20028;-85
2022/07/20 02:56:07;;;;;;;23.08;10.93;;;;;;;21.09;63.21;101183.88;5114575;28;20016;-85
2022/07/20 02:58:33;;;;;;;28.90;13.07;;;;;;;20.95;63.21;101173.63;5114913;28;20023;-85
2022/07/20 03:00:58;;;;;;;17.48;10.18;;;;;;;20.95;63.51;101188.16;5114526;28;20055;-85
2022/07/20 03:03:24;;;;;;;29.80;10.55;;;;;;;20.91;63.68;101185.97;5114638;28;20028;-85
2022/07/20 03:05:49;;;;;;;22.23;10.07;;;;;;;20.92;63.27;101182.19;5115016;28;20085;-85
2022/07/20 03:08:15;;;;;;;29.90;10.88;;;;;;;20.84;63.70;101182.25;5113730;28;20481;-84
2022/07/20 03:10:40;;;;;;;33.10;9.25;;;;;;;20.91;63.44;101184.09;5115211;28;20370;-87
2022/07/20 03:13:05;;;;;;;20.10;9.40;;;;;;;20.91;63.29;101191.44;5113892;28;20030;-87
2022/07/20 03:15:31;;;;;;;19.17;8.48;;;;;;;21.00;63.03;101195.84;5114434;28;20043;-86
2022/07/20 03:17:57;;;;;;;14.27;7.85;;;;;;;20.93;63.13;101198.44;5114666;28;20030;-86
2022/07/20 03:20:26;;;;;;;20.92;9.02;;;;;;;20.95;63.00;101192.78;5114084;28;20435;-86
2022/07/20 03:22:52;;;;;;;20.67;9.93;;;;;;;20.98;63.05;101197.88;5114044;28;20028;-87
2022/07/20 03:25:17;;;;;;;30.90;9.48;;;;;;;20.97;63.04;101202.53;5114131;28;20027;-87
2022/07/20 03:27:43;;;;;;;21.55;9.23;;;;;;;20.99;62.99;101205.06;5113922;28;20085;-85
2022/07/20 03:30:10;;;;;;;21.38;9.00;;;;;;;20.91;63.21;101199.66;5113940;28;20107;-87
2022/07/20 03:32:35;;;;;;;27.50;9.98;;;;;;;20.88;63.29;101203.59;5114419;28;20027;-86
2022/07/20 03:35:01;;;;;;;32.28;10.52;;;;;;;20.97;63.18;101201.69;5114427;28;20026;-86
2022/07/20 03:37:26;;;;;;;19.42;8.57;;;;;;;20.91;63.29;101203.25;5114025;28;20514;-86
2022/07/20 03:39:52;;;;;;;33.92;9.82;;;;;;;20.87;63.24;101201.03;5113835;28;20035;-86
2022/07/20 03:42:18;;;;;;;25.30;9.50;;;;;;;20.82;63.44;101193.38;5114501;28;20032;-87
2022/07/20 03:44:43;;;;;;;16.33;8.05;;;;;;;20.80;64.05;101210.97;5114654;28;20031;-86
2022/07/20 03:47:09;;;;;;;22.10;8.75;;;;;;;20.79;64.71;101215.59;5114320;28;20040;-86
2022/07/20 03:49:35;;;;;;;22.00;8.77;;;;;;;20.85;64.44;101214.03;5114029;28;20036;-87
2022/07/20 03:52:00;;;;;;;39.83;8.88;;;;;;;20.92;64.23;101204.06;5114468;28;20027;-85
2022/07/20 03:54:26;;;;;;;23.80;8.57;;;;;;;20.93;64.33;101203.06;5095875;28;20123;-85
2022/07/20 03:56:51;;;;;;;26.77;8.48;;;;;;;20.93;64.32;101214.00;5114854;28;20020;-83
2022/07/20 03:59:17;;;;;;;29.08;9.48;;;;;;;20.93;64.36;101219.47;5096576;28;20481;-83
2022/07/20 04:01:42;;;;;;;21.60;9.25;;;;;;;20.94;64.49;101218.44;5114463;28;20059;-84
2022/07/20 04:04:08;;;;;;;28.75;8.48;;;;;;;20.97;64.24;101212.63;5114393;28;20027;-83
2022/07/20 04:06:34;;;;;;;27.48;7.93;;;;;;;20.96;64.32;101219.09;5114131;28;20031;-79
2022/07/20 04:09:00;;;;;;;26.52;8.57;;;;;;;20.99;64.10;101216.88;5114805;28;20020;-86
2022/07/20 04:11:26;;;;;;;23.20;7.35;;;;;;;21.05;63.80;101209.81;5114261;28;20030;-80
2022/07/20 04:13:53;;;;;;;25.60;8.73;;;;;;;21.10;63.57;101212.91;5089930;28;20025;-92
2022/07/20 04:16:18;;;;;;;1069.47;140.80;;;;;;;21.00;63.41;101184.91;5076714;28;20052;-81
2022/07/20 04:18:44;;;;;;;39.30;10.30;;;;;;;21.10;63.53;101212.91;5072340;28;20031;-83
2022/07/20 04:21:09;;;;;;;41.78;10.05;;;;;;;21.19;63.22;101214.59;5073141;28;20032;-82
2022/07/20 04:23:35;;;;;;;114.25;15.23;;;;;;;21.23;63.06;101217.81;5072565;28;20056;-82
2022/07/20 04:26:00;;;;;;;95.32;13.40;;;;;;;21.29;63.13;101211.59;5075907;28;20036;-80
2022/07/20 04:28:26;;;;;;;21.80;6.25;;;;;;;21.36;62.61;101218.94;5077074;28;20032;-80
2022/07/20 04:30:51;;;;;;;12.05;6.57;;;;;;;21.44;62.13;101221.59;5077045;28;20052;-79
2022/07/20 04:33:18;;;;;;;20.05;6.78;;;;;;;21.47;62.07;101215.78;5076574;28;20100;-81
2022/07/20 04:35:44;;;;;;;25.02;8.18;;;;;;;21.66;61.71;101225.41;5076351;28;20094;-81
2022/07/20 04:38:13;;;;;;;26.35;7.50;;;;;;;21.77;61.56;101215.91;5076524;28;20068;-81
2022/07/20 04:40:39;;;;;;;27.75;8.75;;;;;;;21.86;61.13;101220.28;5074996;28;20506;-79
2022/07/20 04:43:04;;;;;;;23.30;7.47;;;;;;;21.89;61.00;101209.88;5076797;28;20028;-88
2022/07/20 04:45:30;;;;;;;35.67;8.18;;;;;;;21.96;60.85;101215.44;5075970;28;20046;-82
2022/07/20 04:47:55;;;;;;;25.80;8.77;;;;;;;22.07;60.31;101218.59;5077294;28;20016;-86
2022/07/20 04:50:21;;;;;;;31.42;8.60;;;;;;;22.09;59.44;101218.41;5076850;28;20047;-79
2022/07/20 04:52:46;;;;;;;18.70;7.88;;;;;;;22.21;58.52;101211.44;5091512;28;20032;-84
2022/07/20 04:55:12;;;;;;;24.55;6.97;;;;;;;22.27;57.92;101218.06;5096972;28;20028;-86
2022/07/20 04:57:37;;;;;;;28.58;7.82;;;;;;;22.34;57.77;101219.88;5097075;28;20024;-79
2022/07/20 05:00:04;;;;;;;26.35;7.70;;;;;;;22.32;57.61;101221.97;5096247;28;20028;-81
2022/07/20 05:02:30;;;;;;;41.03;8.32;;;;;;;22.39;57.79;101228.38;5097234;28;20032;-80
2022/07/20 05:04:55;;;;;;;26.48;7.80;;;;;;;22.50;57.40;101230.69;5095794;28;20062;-79
2022/07/20 05:07:21;;;;;;;22.83;8.05;;;;;;;22.58;57.42;101225.09;5095672;28;20078;-79
2022/07/20 05:09:46;;;;;;;30.48;8.60;;;;;;;22.68;57.35;101224.84;5077631;28;20031;-80
2022/07/20 05:12:11;;;;;;;28.23;7.88;;;;;;;22.70;56.96;101225.50;5095776;28;20024;-80
2022/07/20 05:14:37;;;;;;;23.60;6.93;;;;;;;22.76;57.13;101231.09;5095120;28;20024;-80
2022/07/20 05:17:02;;;;;;;53.40;8.45;;;;;;;22.87;56.81;101231.66;5094593;28;20043;-80
2022/07/20 05:19:28;;;;;;;29.02;8.68;;;;;;;22.96;56.92;101236.00;5094107;28;20020;-81
2022/07/20 05:21:53;;;;;;;16.33;6.90;;;;;;;22.94;56.08;101227.97;5095112;28;20473;-79
2022/07/20 05:24:19;;;;;;;30.77;8.00;;;;;;;23.06;55.97;101250.28;5094302;28;20711;-78
2022/07/20 05:26:44;;;;;;;55.80;9.00;;;;;;;23.15;55.78;101240.88;5093739;28;20478;-78
2022/07/20 05:29:10;;;;;;;40.85;9.45;;;;;;;23.17;55.61;101244.31;5094333;28;20019;-81
2022/07/20 05:31:36;;;;;;;29.58;8.52;;;;;;;23.25;55.81;101253.28;5096833;28;20023;-94
2022/07/20 05:34:02;;;;;;;30.58;8.27;;;;;;;23.38;55.24;101246.25;5095908;28;20024;-80
2022/07/20 05:36:27;;;;;;;28.30;6.18;;;;;;;23.43;54.97;101249.28;5093577;28;20107;-76
2022/07/20 05:38:53;;;;;;;16.77;6.32;;;;;;;23.46;55.17;101249.75;5092841;28;20036;-75
2022/07/20 05:41:18;;;;;;;26.15;7.60;;;;;;;23.48;54.88;101242.19;5092735;28;20073;-76
2022/07/20 05:43:43;;;;;;;31.15;6.60;;;;;;;23.56;54.80;101255.81;5093319;28;20027;-75
2022/07/20 05:46:09;;;;;;;19.58;6.28;;;;;;;23.60;54.56;101246.13;5093257;28;20020;-76
2022/07/20 05:48:34;;;;;;;21.77;6.05;;;;;;;23.66;54.31;101244.50;5093093;28;20024;-78
2022/07/20 05:51:00;;;;;;;33.35;8.38;;;;;;;23.65;53.89;101232.66;5093221;28;20020;-76
2022/07/20 05:53:25;;;;;;;42.25;7.32;;;;;;;23.76;54.08;101234.03;5092978;28;20024;-73
2022/07/20 05:55:51;;;;;;;26.15;8.65;;;;;;;23.87;53.62;101249.16;5092470;28;20522;-76
2022/07/20 05:58:16;;;;;;;31.33;9.25;;;;;;;23.93;53.53;101242.88;5092480;28;20102;-76
2022/07/20 06:00:42;;;;;;;43.75;8.20;;;;;;;23.94;53.50;101239.09;5092170;28;20551;-77
2022/07/20 06:03:08;;;;;;;26.77;7.88;;;;;;;23.98;53.39;101243.13;5073669;28;20429;-77
2022/07/20 06:05:34;;;;;;;26.63;8.82;;;;;;;23.97;53.08;101235.94;5093990;28;20056;-78
2022/07/20 06:08:01;;;;;;;33.13;10.60;;;;;;;24.03;53.40;101233.25;5093963;28;20077;-81
2022/07/20 06:10:31;;;;;;;104.90;11.48;;;;;;;24.13;53.10;101246.66;5093099;28;20024;-77
2022/07/20 06:12:58;;;;;;;50.03;10.38;;;;;;;24.24;53.17;101237.91;5086995;28;20031;-79
2022/07/20 06:15:27;;;;;;;22.35;7.78;;;;;;;24.27;52.38;101235.63;5071904;28;20403;-76
2022/07/20 06:17:53;;;;;;;18.75;6.68;;;;;;;24.36;52.34;101231.66;5072467;28;20032;-77
2022/07/20 06:20:20;;;;;;;36.05;7.03;;;;;;;24.47;51.63;101229.41;5072106;28;20028;-78
2022/07/20 06:22:45;;;;;;;35.38;8.07;;;;;;;24.51;51.51;101223.31;5078150;28;20016;-80
2022/07/20 06:25:13;;;;;;;29.42;6.78;;;;;;;24.56;50.77;101220.78;5091964;28;20028;-76
2022/07/20 06:27:39;;;;;;;28.38;8.77;;;;;;;24.63;50.55;101221.69;5092997;28;20032;-81
2022/07/20 06:30:06;;;;;;;19.80;5.40;;;;;;;24.63;50.28;101216.19;5094141;28;20024;-82
2022/07/20 06:32:31;;;;;;;46.70;17.83;;;;;;;24.71;49.36;101226.16;5094487;28;20108;-80
2022/07/20 06:34:57;;;;;;;26.00;6.97;;;;;;;24.73;48.75;101215.81;5094247;28;20061;-82
2022/07/20 06:37:22;;;;;;;12.73;5.70;;;;;;;24.89;48.57;101237.56;5094228;28;20038;-83
2022/07/20 06:39:48;;;;;;;20.80;9.60;;;;;;;24.83;46.48;101228.19;5076104;28;20101;-80
2022/07/20 06:42:14;;;;;;;36.88;4.45;;;;;;;24.84;45.63;101235.41;5093764;28;20502;-81
2022/07/20 06:44:39;;;;;;;21.80;3.13;;;;;;;24.81;45.33;101230.31;5093964;28;20055;-80
2022/07/20 06:47:05;;;;;;;47.35;5.50;;;;;;;24.63;45.94;101221.69;5093136;28;20060;-80
2022/07/20 06:49:31;;;;;;;149.80;11.18;;;;;;;24.75;46.30;101232.97;5093519;28;20031;-83
2022/07/20 06:51:57;;;;;;;30.63;4.05;;;;;;;24.81;45.96;101230.31;5093177;28;20020;-80
2022/07/20 06:54:22;;;;;;;13.65;2.97;;;;;;;24.89;45.20;101232.88;5093093;28;20040;-80
2022/07/20 06:56:48;;;;;;;91.07;8.50;;;;;;;24.88;44.92;101233.09;5080187;28;20028;-76
2022/07/20 06:59:13;;;;;;;106.03;7.95;;;;;;;24.81;45.01;101234.94;5109421;28;20031;-81
2022/07/20 07:01:39;;;;;;;20.17;2.97;;;;;;;24.78;45.16;101230.66;5108007;28;20019;-84
2022/07/20 07:04:04;;;;;;;9.15;2.20;;;;;;;24.76;45.70;101231.94;5088522;28;20047;-78
2022/07/20 07:06:32;;;;;;;74.60;7.55;;;;;;;24.85;45.68;101225.25;5094233;28;20028;-85
2022/07/20 07:08:58;;;;;;;29.63;4.13;;;;;;;24.84;45.68;101213.38;5093637;28;20031;-84
2022/07/20 07:11:24;;;;;;;40.20;4.53;;;;;;;24.84;45.74;101212.53;5087260;28;20061;-84
2022/07/20 07:13:50;;;;;;;58.28;5.82;;;;;;;24.99;45.36;101232.50;5092323;28;20023;-84
2022/07/20 07:16:15;;;;;;;22.85;3.20;;;;;;;24.92;44.10;101230.78;5095991;28;20040;-81
2022/07/20 07:18:42;;;;;;;44.08;5.28;;;;;;;24.96;44.32;101230.16;5093445;28;20052;-82
2022/07/20 07:21:08;;;;;;;44.88;5.93;;;;;;;24.95;44.08;101209.22;5104830;28;20038;-87
2022/07/20 07:23:33;;;;;;;34.45;2.92;;;;;;;25.11;41.35;101224.50;5084636;28;20079;-86
2022/07/20 07:25:59;;;;;;;33.15;2.63;;;;;;;25.18;39.84;101218.00;5098122;28;20020;-89
2022/07/20 07:28:24;;;;;;;16.35;2.55;;;;;;;25.15;39.86;101225.81;5107027;28;20482;-82
2022/07/20 07:30:50;;;;;;;5.93;1.70;;;;;;;25.25;40.22;101231.78;5093418;28;20074;-81
2022/07/20 07:33:16;;;;;;;12.70;1.77;;;;;;;25.20;39.80;101228.78;5093248;28;20031;-85
2022/07/20 07:35:42;;;;;;;15.40;2.92;;;;;;;25.20;40.64;101215.88;5093735;28;20043;-85
2022/07/20 07:38:08;;;;;;;21.27;3.80;;;;;;;25.34;42.38;101219.53;5094559;28;20497;-87
2022/07/20 07:40:34;;;;;;;20.67;2.80;;;;;;;25.46;42.21;101223.38;5094377;28;20107;-86
2022/07/20 07:42:59;;;;;;;15.13;2.30;;;;;;;25.35;40.53;101199.22;5076299;28;20477;-86
2022/07/20 07:45:25;;;;;;;11.20;3.38;;;;;;;25.46;39.88;101206.84;5094217;28;20024;-85
2022/07/20 07:47:51;;;;;;;9.43;1.80;;;;;;;25.65;39.96;101228.13;5094129;28;20075;-87
2022/07/20 07:50:16;;;;;;;8.07;2.10;;;;;;;25.71;41.17;101227.31;5094195;28;20020;-83
2022/07/20 07:52:42;;;;;;;4.18;2.20;;;;;;;25.67;40.80;101203.97;5094998;28;20043;-85
2022/07/20 07:55:08;;;;;;;5.65;2.35;;;;;;;25.78;40.34;101205.25;5094137;28;20409;-86
2022/07/20 07:57:33;;;;;;;4.00;1.83;;;;;;;25.78;39.80;101199.72;5094104;28;20067;-84
2022/07/20 07:59:59;;;;;;;23.40;2.88;;;;;;;25.85;38.62;101206.09;5098701;28;20028;-88
2022/07/20 08:02:24;;;;;;;39.30;3.53;;;;;;;26.10;38.71;101220.13;5100506;28;20489;-87
2022/07/20 08:04:49;;;;;;;41.72;4.68;;;;;;;26.03;38.90;101230.28;5098536;28;20807;-80
2022/07/20 08:07:15;;;;;;;18.40;2.42;;;;;;;26.01;40.07;101215.88;5097020;28;20031;-85
2022/07/20 08:09:41;;;;;;;11.15;2.35;;;;;;;26.16;39.95;101216.56;5097745;28;20024;-84
2022/07/20 08:12:06;;;;;;;10.48;2.00;;;;;;;26.34;40.01;101222.25;5094381;28;20028;-80
2022/07/20 08:14:32;;;;;;;10.05;2.05;;;;;;;26.36;40.42;101211.88;5080426;28;20024;-86
2022/07/20 08:16:58;;;;;;;6.40;1.60;;;;;;;26.09;40.09;101213.75;5098590;28;20119;-82
2022/07/20 08:19:23;;;;;;;12.40;2.33;;;;;;;25.96;40.61;101213.78;5079351;28;20028;-85
2022/07/20 08:21:49;;;;;;;17.25;2.00;;;;;;;25.82;41.15;101204.63;5096763;28;20028;-86
2022/07/20 08:24:16;;;;;;;10.60;1.70;;;;;;;25.65;41.50;101205.25;5097007;28;20024;-86
2022/07/20 08:26:43;;;;;;;11.52;2.22;;;;;;;25.61;41.97;101206.72;5096592;28;20028;-87
2022/07/20 08:29:08;;;;;;;20.10;1.88;;;;;;;25.67;41.46;101209.47;5113025;28;20027;-86
2022/07/20 08:31:34;;;;;;;12.30;2.65;;;;;;;25.56;41.08;101171.53;5098908;28;20028;-86
2022/07/20 08:33:59;;;;;;;19.75;1.83;;;;;;;25.70;40.90;101180.66;5117668;28;20111;-86
2022/07/20 08:36:25;;;;;;;93.13;6.32;;;;;;;25.92;40.29;101205.06;5100171;28;20041;-87
2022/07/20 08:38:50;;;;;;;4.00;1.60;;;;;;;26.12;40.08;101206.97;5102933;28;20482;-88
2022/07/20 08:41:17;;;;;;;7.25;1.85;;;;;;;26.18;39.56;101211.66;5096718;28;20099;-87
2022/07/20 08:43:42;;;;;;;3.88;2.00;;;;;;;26.24;38.16;101202.53;5096266;28;20089;-87
2022/07/20 08:46:08;;;;;;;48.90;4.38;;;;;;;26.37;38.89;101195.09;5095323;28;20028;-75
2022/07/20 08:48:38;;;;;;;6.88;1.75;;;;;;;26.49;39.50;101198.91;5106218;28;20031;-77
2022/07/20 08:51:04;;;;;;;14.18;1.80;;;;;;;26.66;39.12;101196.56;5110903;28;20034;-76
2022/07/20 08:53:30;;;;;;;15.65;2.20;;;;;;;26.63;39.94;101183.19;5114035;28;20050;-83
2022/07/20 08:55:55;;;;;;;33.58;3.40;;;;;;;26.60;40.23;101194.66;5097276;28;20788;-84
2022/07/20 08:58:22;;;;;;;27.25;2.80;;;;;;;26.64;40.09;101195.03;5107692;28;20127;-84
2022/07/20 09:00:47;;;;;;;12.57;2.30;;;;;;;26.71;39.79;101187.59;5116011;28;20027;-83
2022/07/20 09:03:13;;;;;;;7.15;2.05;;;;;;;26.81;39.62;101197.19;5114474;28;20027;-82
2022/07/20 09:05:40;;;;;;;8.82;1.92;;;;;;;26.89;38.96;101188.66;5114290;28;20449;-83
2022/07/20 09:08:10;;;;;;;9.07;2.30;;;;;;;26.93;40.27;101178.88;5117249;28;20031;-83
2022/07/20 09:10:38;;;;;;;10.00;2.05;;;;;;;27.01;39.73;101186.91;5112438;28;20032;-79
2022/07/20 09:13:12;;;;;;;3.47;1.50;;;;;;;27.06;38.25;101182.66;5113454;28;20473;-92
2022/07/20 09:15:43;;;;;;;8.40;1.80;;;;;;;27.03;38.48;101183.94;5086312;28;20071;-85
2022/07/20 09:18:30;;;;;;;7.85;2.22;;;;;;;26.90;39.59;101162.75;5098328;28;20401;-91
2022/07/20 09:21:00;;;;;;;33.10;3.83;;;;;;;26.74;41.29;101160.44;5100158;28;20080;-91
2022/07/20 09:23:33;;;;;;;44.13;4.13;;;;;;;26.86;42.09;101172.53;5117028;28;20047;-81
2022/07/20 09:26:02;;;;;;;;;;;;;;;26.89;40.07;101172.06;5110624;28;20470;-83
2022/07/20 09:28:48;;;;;;;17.45;2.20;;;;;;;26.97;41.88;101162.72;5094984;28;19915;-81
2022/07/20 09:31:35;;;;;;;12.20;1.95;;;;;;;26.86;40.97;101158.72;5095507;28;20031;-86
2022/07/20 09:34:14;;;;;;;4.03;1.58;;;;;;;26.74;41.24;101146.63;5088523;28;20054;-85
2022/07/20 09:36:45;;;;;;;13.90;1.90;;;;;;;26.77;40.77;101146.19;5111658;28;20469;-87
2022/07/20 09:39:16;;;;;;;8.57;2.05;;;;;;;26.93;42.13;101153.16;5094965;28;20111;-82
2022/07/20 09:41:44;;;;;;;7.15;2.45;;;;;;;26.93;42.43;101140.22;5101383;28;20065;-86
2022/07/20 09:44:21;;;;;;;8.85;1.83;;;;;;;26.97;39.26;101140.63;5099645;28;20024;-81
2022/07/20 09:46:47;;;;;;;14.38;3.15;;;;;;;27.07;40.19;101134.59;5091328;28;20035;-87
2022/07/20 09:49:12;;;;;;;13.55;2.67;;;;;;;27.11;42.07;101130.34;5097680;28;20043;-94
2022/07/20 09:51:40;;;;;;;8.73;2.03;;;;;;;27.34;40.93;101145.28;5116243;28;20397;-89
2022/07/20 09:54:11;;;;;;;26.13;2.92;;;;;;;27.32;41.13;101138.31;5115959;28;20564;-87
2022/07/20 09:56:43;;;;;;;7.07;1.75;;;;;;;27.41;41.10;101120.38;5117201;28;20023;-87
2022/07/20 09:59:11;;;;;;;8.17;1.87;;;;;;;27.45;40.24;101132.72;5116842;28;20092;-90
2022/07/20 10:01:39;;;;;;;6.07;2.50;;;;;;;27.25;43.05;101109.84;5117378;28;20293;-88
2022/07/20 10:04:07;;;;;;;23.45;3.33;;;;;;;27.40;42.41;101129.75;5116851;28;20027;-87
2022/07/20 10:06:35;;;;;;;12.00;1.42;;;;;;;27.28;40.38;101137.88;5116354;28;20063;-88
2022/07/20 10:09:01;;;;;;;5.70;2.17;;;;;;;27.26;40.41;101114.31;5116647;28;20023;-88
2022/07/20 10:11:27;;;;;;;31.15;3.10;;;;;;;27.40;41.98;101127.81;5115769;28;20054;-87
2022/07/20 10:13:54;;;;;;;21.38;2.80;;;;;;;27.45;43.05;101127.19;5102475;28;20031;-87
2022/07/20 10:16:30;;;;;;;4.93;2.63;;;;;;;27.55;42.89;101122.03;5077538;28;20490;-87
2022/07/20 10:18:57;;;;;;;5.22;1.65;;;;;;;27.70;39.85;101119.78;5095493;28;20023;-88
2022/07/20 10:21:46;;;;;;;20.38;2.72;;;;;;;27.74;41.85;101126.53;5096862;28;20047;-88
2022/07/20 10:24:15;;;;;;;26.02;2.13;;;;;;;27.85;41.70;101114.78;5096500;28;20052;-88
2022/07/20 10:26:42;;;;;;;3.97;1.63;;;;;;;27.81;42.13;101105.22;5077417;28;20024;-87
2022/07/20 10:29:07;;;;;;;43.92;3.47;;;;;;;27.70;43.71;101097.69;5095331;28;20028;-88
2022/07/20 10:31:53;;;;;;;38.67;3.85;;;;;;;27.79;42.60;101099.09;5095363;28;20023;-87
2022/07/20 10:34:41;;;;;;;7.53;1.70;;;;;;;27.72;41.29;101094.66;5096203;28;20500;-88
2022/07/20 10:37:29;;;;;;;4.65;1.48;;;;;;;27.84;41.75;101096.47;5079782;28;20079;-88
2022/07/20 10:39:57;;;;;;;4.05;1.45;;;;;;;27.98;41.21;101092.50;5076352;28;20024;-87
2022/07/20 10:42:43;;;;;;;15.30;2.65;;;;;;;28.01;41.75;101089.28;5094485;28;20036;-88
2022/07/20 10:45:15;;;;;;;4.80;1.70;;;;;;;28.01;41.23;101089.28;5094597;28;20074;-88
2022/07/20 10:47:44;;;;;;;6.63;2.05;;;;;;;28.03;41.36;101080.78;5094861;28;20028;-87
2022/07/20 10:50:17;;;;;;;28.05;4.45;;;;;;;28.00;42.77;101073.78;5076894;28;20122;-85
2022/07/20 10:52:45;;;;;;;15.38;1.65;;;;;;;28.09;41.36;101079.91;5095116;28;20031;-88
2022/07/20 10:55:33;;;;;;;15.95;2.63;;;;;;;28.20;40.92;101083.81;5094671;28;20035;-88
2022/07/20 10:58:08;;;;;;;2.63;1.20;;;;;;;28.22;39.42;101067.84;5094624;28;20035;-88
2022/07/20 11:00:46;;;;;;;6.85;1.63;;;;;;;28.42;39.19;101082.28;5076785;28;20494;-88
2022/07/20 11:03:17;;;;;;;4.65;1.75;;;;;;;28.50;39.08;101084.78;5095116;28;20034;-86
2022/07/20 11:05:48;;;;;;;12.90;2.08;;;;;;;28.51;40.54;101086.44;5076007;28;20123;-88
2022/07/20 11:08:15;;;;;;;12.55;1.80;;;;;;;28.50;39.32;101076.47;5093719;28;20036;-87
2022/07/20 11:10:42;;;;;;;4.63;1.40;;;;;;;28.40;38.62;101065.09;5076006;28;20035;-87
2022/07/20 11:13:12;;;;;;;4.22;1.38;;;;;;;28.38;39.19;101078.28;5094092;28;20112;-87
2022/07/20 11:15:44;;;;;;;9.30;1.42;;;;;;;28.49;39.07;101074.75;5094120;28;20040;-87
2022/07/20 11:18:11;;;;;;;3.30;1.53;;;;;;;28.66;39.43;101073.09;5076123;28;20482;-88
2022/07/20 11:20:46;;;;;;;10.45;2.38;;;;;;;28.69;38.40;101058.78;5094818;28;20274;-86